createdAt,value
2023-02-27T00:01:35.116Z,2.30
2023-02-27T00:04:03.357Z,2.30
2023-02-27T00:06:31.504Z,2.26
2023-02-27T00:08:59.301Z,2.20
2023-02-27T00:11:27.837Z,2.16
2023-02-27T00:13:56.472Z,2.10
2023-02-27T00:16:25.600Z,2.02
2023-02-27T00:18:53.483Z,2.00
2023-02-27T00:21:21.959Z,1.90
2023-02-27T00:23:51.924Z,1.90
2023-02-27T00:26:19.869Z,1.90
2023-02-27T00:28:50.035Z,1.90
2023-02-27T00:31:18.220Z,1.90
2023-02-27T00:33:46.422Z,1.90
2023-02-27T00:36:14.743Z,1.90
2023-02-27T00:38:42.815Z,1.90
2023-02-27T00:41:10.774Z,1.80
2023-02-27T00:43:38.563Z,1.76
2023-02-27T00:46:07.744Z,1.70
2023-02-27T00:48:39.258Z,1.60
2023-02-27T00:51:08.217Z,1.52
2023-02-27T00:53:36.790Z,1.50
2023-02-27T00:56:05.077Z,1.40
2023-02-27T00:58:33.455Z,1.40
2023-02-27T01:01:01.593Z,1.40
2023-02-27T01:03:30.545Z,1.34
2023-02-27T01:06:01.787Z,1.32
2023-02-27T01:08:29.861Z,1.34
2023-02-27T01:10:57.675Z,1.30
2023-02-27T01:13:26.146Z,1.30
2023-02-27T01:15:55.526Z,1.30
2023-02-27T01:18:25.455Z,1.30
2023-02-27T01:20:55.049Z,1.20
2023-02-27T01:23:24.856Z,1.20
2023-02-27T01:25:56.001Z,1.20
2023-02-27T01:28:25.537Z,1.20
2023-02-27T01:30:54.176Z,1.20
2023-02-27T01:33:22.355Z,1.20
2023-02-27T01:35:50.361Z,1.20
2023-02-27T01:38:18.296Z,1.20
2023-02-27T01:40:49.169Z,1.20
2023-02-27T01:43:20.950Z,1.20
2023-02-27T01:45:50.376Z,1.20
2023-02-27T01:48:39.040Z,1.20
2023-02-27T01:51:16.706Z,1.20
2023-02-27T01:53:51.274Z,1.20
2023-02-27T01:56:29.054Z,1.18
2023-02-27T01:59:05.874Z,1.10
2023-02-27T02:01:36.625Z,1.00
2023-02-27T02:04:19.768Z,1.00
2023-02-27T02:06:54.059Z,1.00
2023-02-27T02:09:22.488Z,0.90
2023-02-27T02:11:50.632Z,0.90
2023-02-27T02:14:19.069Z,0.90
2023-02-27T02:17:08.685Z,0.90
2023-02-27T02:20:35.224Z,0.90
2023-02-27T02:24:06.905Z,0.88
2023-02-27T02:26:48.799Z,0.84
2023-02-27T02:30:02.528Z,0.84
2023-02-27T02:33:02.109Z,0.80
2023-02-27T02:36:10.424Z,0.80
2023-02-27T02:39:45.044Z,0.76
2023-02-27T02:42:38.830Z,0.70
2023-02-27T02:45:33.440Z,0.70
2023-02-27T02:48:15.934Z,0.70
2023-02-27T02:51:06.259Z,0.70
2023-02-27T02:54:14.673Z,0.70
2023-02-27T02:57:14.134Z,0.70
2023-02-27T02:59:58.472Z,0.60
2023-02-27T03:02:34.953Z,0.60
2023-02-27T03:05:35.322Z,0.58
2023-02-27T03:08:15.934Z,0.50
2023-02-27T03:10:54.305Z,0.40
2023-02-27T03:13:36.412Z,0.40
2023-02-27T03:16:14.506Z,0.40
2023-02-27T03:18:59.207Z,0.40
2023-02-27T03:21:37.349Z,0.40
2023-02-27T03:24:12.898Z,0.34
2023-02-27T03:26:45.508Z,0.30
2023-02-27T03:29:41.450Z,0.30
2023-02-27T03:33:10.655Z,0.30
2023-02-27T03:36:09.341Z,0.30
2023-02-27T03:38:55.011Z,0.30
2023-02-27T03:41:43.020Z,0.30
2023-02-27T03:44:21.028Z,0.34
2023-02-27T03:46:50.115Z,0.36
2023-02-27T03:49:18.366Z,0.34
2023-02-27T03:51:47.032Z,0.30
2023-02-27T03:54:27.229Z,0.30
2023-02-27T03:57:04.501Z,0.28
2023-02-27T03:59:34.491Z,0.30
2023-02-27T04:02:06.437Z,0.20
2023-02-27T04:04:35.751Z,0.20
2023-02-27T04:07:37.713Z,0.20
2023-02-27T04:10:56.252Z,0.20
2023-02-27T04:13:52.927Z,0.14
2023-02-27T04:16:26.760Z,0.14
2023-02-27T04:19:24.210Z,0.10
2023-02-27T04:22:08.845Z,0.10
2023-02-27T04:25:05.013Z,0.00
2023-02-27T04:27:38.383Z,0.00
2023-02-27T04:30:15.090Z,0.00
2023-02-27T04:33:15.167Z,0.00
2023-02-27T04:36:12.963Z,0.00
2023-02-27T04:39:01.874Z,0.00
2023-02-27T04:41:39.983Z,0.00
2023-02-27T04:44:11.969Z,0.00
2023-02-27T04:46:44.375Z,0.00
2023-02-27T04:49:25.784Z,0.00
2023-02-27T04:52:08.466Z,-0.04
2023-02-27T04:55:12.128Z,-0.08
2023-02-27T04:57:52.390Z,0.00
2023-02-27T05:00:24.748Z,0.00
2023-02-27T05:03:09.190Z,0.00
2023-02-27T05:05:43.647Z,0.00
2023-02-27T05:08:42.992Z,0.00
2023-02-27T05:11:54.795Z,-0.10
2023-02-27T05:14:35.284Z,-0.10
2023-02-27T05:17:08.765Z,-0.10
2023-02-27T05:19:42.779Z,-0.18
2023-02-27T05:22:37.656Z,-0.20
2023-02-27T05:25:37.546Z,-0.30
2023-02-27T05:28:19.164Z,-0.30
2023-02-27T05:31:20.783Z,-0.40
2023-02-27T05:34:12.482Z,-0.38
2023-02-27T05:36:50.936Z,-0.30
2023-02-27T05:39:23.967Z,-0.40
2023-02-27T05:42:02.088Z,-0.40
2023-02-27T05:44:35.552Z,-0.40
2023-02-27T05:47:13.669Z,-0.30
2023-02-27T05:49:48.499Z,-0.30
2023-02-27T05:52:24.996Z,-0.30
2023-02-27T05:55:08.526Z,-0.36
2023-02-27T05:57:47.501Z,-0.40
2023-02-27T06:00:23.033Z,-0.42
2023-02-27T06:02:50.865Z,-0.50
2023-02-27T06:05:20.145Z,-0.50
2023-02-27T06:07:47.860Z,-0.50
2023-02-27T06:10:19.723Z,-0.50
2023-02-27T06:12:47.884Z,-0.50
2023-02-27T06:15:17.588Z,-0.60
2023-02-27T06:17:45.751Z,-0.60
2023-02-27T06:20:15.152Z,-0.70
2023-02-27T06:22:42.964Z,-0.76
2023-02-27T06:25:11.413Z,-0.90
2023-02-27T06:27:39.349Z,-1.00
2023-02-27T06:30:10.412Z,-1.10
2023-02-27T06:32:39.153Z,-1.10
2023-02-27T06:35:08.546Z,-1.20
2023-02-27T06:37:39.266Z,-1.14
2023-02-27T06:40:12.127Z,-1.20
2023-02-27T06:42:45.133Z,-1.20
2023-02-27T06:45:16.252Z,-1.20
2023-02-27T06:47:45.058Z,-1.12
2023-02-27T06:50:14.585Z,-1.10
2023-02-27T06:52:43.358Z,-1.10
2023-02-27T06:55:12.081Z,-1.10
2023-02-27T06:57:39.997Z,-1.04
2023-02-27T07:00:12.072Z,-1.00
2023-02-27T07:02:40.990Z,-1.00
2023-02-27T07:05:13.814Z,-0.90
2023-02-27T07:07:42.331Z,-0.88
2023-02-27T07:10:14.086Z,-0.80
2023-02-27T07:12:42.564Z,-0.80
2023-02-27T07:15:11.218Z,-0.80
2023-02-27T07:17:39.214Z,-0.80
2023-02-27T07:20:10.922Z,-0.80
2023-02-27T07:22:41.468Z,-0.90
2023-02-27T07:25:11.343Z,-0.90
2023-02-27T07:27:39.638Z,-0.90
2023-02-27T07:30:08.928Z,-0.96
2023-02-27T07:32:37.741Z,-1.00
2023-02-27T07:35:07.946Z,-1.00
2023-02-27T07:37:35.919Z,-0.98
2023-02-27T07:40:08.074Z,-0.90
2023-02-27T07:42:37.146Z,-0.90
2023-02-27T07:45:06.449Z,-0.90
2023-02-27T07:47:34.728Z,-0.90
2023-02-27T07:50:04.897Z,-0.98
2023-02-27T07:52:33.142Z,-0.90
2023-02-27T07:55:01.102Z,-0.90
2023-02-27T07:57:29.057Z,-0.90
2023-02-27T07:59:59.496Z,-0.90
2023-02-27T08:02:27.730Z,-0.90
2023-02-27T08:04:55.917Z,-0.80
2023-02-27T08:07:23.899Z,-0.70
2023-02-27T08:09:51.815Z,-0.58
2023-02-27T08:12:19.943Z,-0.46
2023-02-27T08:14:48.084Z,-0.36
2023-02-27T08:17:16.224Z,-0.30
2023-02-27T08:19:43.982Z,-0.20
2023-02-27T08:22:12.437Z,-0.20
2023-02-27T08:24:41.045Z,-0.20
2023-02-27T08:27:08.732Z,-0.20
2023-02-27T08:29:38.705Z,-0.18
2023-02-27T08:32:06.543Z,-0.10
2023-02-27T08:34:34.397Z,-0.04
2023-02-27T08:37:02.474Z,0.00
2023-02-27T08:39:31.195Z,0.14
2023-02-27T08:41:59.087Z,0.20
2023-02-27T08:44:26.797Z,0.30
2023-02-27T08:46:57.137Z,0.40
2023-02-27T08:49:26.095Z,0.30
2023-02-27T08:51:54.686Z,0.20
2023-02-27T08:54:22.592Z,0.26
2023-02-27T08:56:51.633Z,0.30
2023-02-27T08:59:19.344Z,0.30
2023-02-27T09:01:47.352Z,0.40
2023-02-27T09:04:17.597Z,0.46
2023-02-27T09:06:45.763Z,0.54
2023-02-27T09:09:14.757Z,0.70
2023-02-27T09:11:46.331Z,0.82
2023-02-27T09:14:14.068Z,0.98
2023-02-27T09:16:42.179Z,1.10
2023-02-27T09:19:10.478Z,1.10
2023-02-27T09:21:43.482Z,1.20
2023-02-27T09:24:19.859Z,1.30
2023-02-27T09:26:49.971Z,1.40
2023-02-27T09:29:18.489Z,1.50
2023-02-27T09:31:46.315Z,1.50
2023-02-27T09:34:14.220Z,1.60
2023-02-27T09:36:45.105Z,1.60
2023-02-27T09:39:13.215Z,1.70
2023-02-27T09:42:04.440Z,1.80
2023-02-27T09:44:47.061Z,1.90
2023-02-27T09:47:39.933Z,2.00
2023-02-27T09:50:32.816Z,1.90
2023-02-27T09:53:01.729Z,1.90
2023-02-27T09:55:37.926Z,1.90
2023-02-27T09:58:30.029Z,2.00
2023-02-27T10:01:14.663Z,2.10
2023-02-27T10:04:24.115Z,2.22
2023-02-27T10:07:01.588Z,2.30
2023-02-27T10:10:11.225Z,2.50
2023-02-27T10:13:33.924Z,2.70
2023-02-27T10:16:04.110Z,2.80
2023-02-27T10:18:54.515Z,2.90
2023-02-27T10:21:34.800Z,3.00
2023-02-27T10:24:42.708Z,3.00
2023-02-27T10:27:19.274Z,3.16
2023-02-27T10:29:47.876Z,3.20
2023-02-27T10:32:34.371Z,3.36
2023-02-27T10:35:26.139Z,3.40
2023-02-27T10:38:01.950Z,3.44
2023-02-27T10:40:31.276Z,3.50
2023-02-27T10:43:05.914Z,3.58
2023-02-27T10:45:36.564Z,3.70
2023-02-27T10:48:06.679Z,3.80
2023-02-27T10:50:41.170Z,3.90
2023-02-27T10:53:22.949Z,4.00
2023-02-27T10:56:08.077Z,4.00
2023-02-27T10:58:38.131Z,4.10
2023-02-27T11:01:15.296Z,4.20
2023-02-27T11:03:45.290Z,4.40
2023-02-27T11:06:26.594Z,4.60
2023-02-27T11:09:24.659Z,4.60
2023-02-27T11:11:53.696Z,4.70
2023-02-27T11:14:33.836Z,4.80
2023-02-27T11:17:03.403Z,4.80
2023-02-27T11:19:40.197Z,5.00
2023-02-27T11:22:15.520Z,5.20
2023-02-27T11:24:43.391Z,5.30
2023-02-27T11:27:37.890Z,5.50
2023-02-27T11:30:32.062Z,5.70
2023-02-27T11:33:01.644Z,5.80
2023-02-27T11:35:37.278Z,5.94
2023-02-27T11:38:18.899Z,6.10
2023-02-27T11:40:55.968Z,6.16
2023-02-27T11:43:52.558Z,6.26
2023-02-27T11:46:47.342Z,6.20
2023-02-27T11:49:38.173Z,6.42
2023-02-27T11:52:13.858Z,6.70
2023-02-27T11:54:55.472Z,6.80
2023-02-27T11:57:38.749Z,6.90
2023-02-27T12:00:22.134Z,7.00
2023-02-27T12:03:02.418Z,7.20
2023-02-27T12:05:59.742Z,7.30
2023-02-27T12:08:50.888Z,7.30
2023-02-27T12:11:29.925Z,7.20
2023-02-27T12:14:28.831Z,7.10
2023-02-27T12:17:18.508Z,7.10
2023-02-27T12:20:48.216Z,7.10
2023-02-27T12:24:14.027Z,7.10
2023-02-27T12:26:48.818Z,7.32
2023-02-27T12:29:58.536Z,7.60
2023-02-27T12:32:43.093Z,7.84
2023-02-27T12:35:26.209Z,8.00
2023-02-27T12:37:56.381Z,8.20
2023-02-27T12:40:39.398Z,8.30
2023-02-27T12:43:26.052Z,8.40
2023-02-27T12:46:18.303Z,8.30
2023-02-27T12:49:23.685Z,8.20
2023-02-27T12:52:19.588Z,8.30
2023-02-27T12:55:06.606Z,8.30
2023-02-27T12:57:51.399Z,8.40
2023-02-27T13:00:26.154Z,8.56
2023-02-27T13:03:04.149Z,8.70
2023-02-27T13:05:44.810Z,8.76
2023-02-27T13:08:47.457Z,8.80
2023-02-27T13:11:22.554Z,8.80
2023-02-27T13:14:12.417Z,8.80
2023-02-27T13:16:46.670Z,8.70
2023-02-27T13:19:24.533Z,8.70
2023-02-27T13:22:02.893Z,8.50
2023-02-27T13:24:33.498Z,8.30
2023-02-27T13:27:38.297Z,8.10
2023-02-27T13:30:30.436Z,7.90
2023-02-27T13:34:02.509Z,7.80
2023-02-27T13:36:59.070Z,7.70
2023-02-27T13:39:48.929Z,7.54
2023-02-27T13:42:25.424Z,7.42
2023-02-27T13:45:26.238Z,7.38
2023-02-27T13:47:55.520Z,7.30
2023-02-27T13:50:24.983Z,7.30
2023-02-27T13:52:53.142Z,7.22
2023-02-27T13:55:31.350Z,7.20
2023-02-27T13:58:02.162Z,7.20
2023-02-27T14:00:34.594Z,7.20
2023-02-27T14:03:19.099Z,7.20
2023-02-27T14:05:51.199Z,7.20
2023-02-27T14:08:29.620Z,7.20
2023-02-27T14:11:22.212Z,7.20
2023-02-27T14:13:49.939Z,7.20
2023-02-27T14:16:40.014Z,7.20
2023-02-27T14:19:17.339Z,7.10
2023-02-27T14:22:03.782Z,7.10
2023-02-27T14:25:02.431Z,7.10
2023-02-27T14:27:48.194Z,7.10
2023-02-27T14:30:31.295Z,7.10
2023-02-27T14:33:40.378Z,7.10
2023-02-27T14:36:17.943Z,7.10
2023-02-27T14:38:47.294Z,7.10
2023-02-27T14:42:16.594Z,7.10
2023-02-27T14:44:48.651Z,7.10
2023-02-27T14:47:40.843Z,7.10
2023-02-27T14:50:37.433Z,7.10
2023-02-27T14:53:06.884Z,7.10
2023-02-27T14:55:37.865Z,7.10
2023-02-27T14:58:36.149Z,7.10
2023-02-27T15:01:09.937Z,7.10
2023-02-27T15:03:52.365Z,7.10
2023-02-27T15:06:43.808Z,7.10
2023-02-27T15:09:34.804Z,7.10
2023-02-27T15:12:05.060Z,7.10
2023-02-27T15:14:40.449Z,7.12
2023-02-27T15:17:21.565Z,7.20
2023-02-27T15:19:57.419Z,7.10
2023-02-27T15:22:39.923Z,7.00
2023-02-27T15:25:30.304Z,6.98
2023-02-27T15:28:08.064Z,6.90
2023-02-27T15:30:35.840Z,6.80
2023-02-27T15:33:11.640Z,6.70
2023-02-27T15:35:45.831Z,6.60
2023-02-27T15:38:30.855Z,6.52
2023-02-27T15:41:02.296Z,6.40
2023-02-27T15:43:31.625Z,6.36
2023-02-27T15:46:01.607Z,6.30
2023-02-27T15:48:33.146Z,6.30
2023-02-27T15:51:05.842Z,6.30
2023-02-27T15:53:35.896Z,6.28
2023-02-27T15:56:12.234Z,6.10
2023-02-27T15:58:54.719Z,6.00
2023-02-27T16:01:35.012Z,5.90
2023-02-27T16:04:14.100Z,5.86
2023-02-27T16:07:01.598Z,5.80
2023-02-27T16:09:34.567Z,5.80
2023-02-27T16:12:34.938Z,5.70
2023-02-27T16:15:20.220Z,5.70
2023-02-27T16:18:07.853Z,5.64
2023-02-27T16:20:47.845Z,5.52
2023-02-27T16:23:20.898Z,5.50
2023-02-27T16:26:24.581Z,5.40
2023-02-27T16:29:04.489Z,5.30
2023-02-27T16:31:38.925Z,5.10
2023-02-27T16:34:45.936Z,5.00
2023-02-27T16:37:35.019Z,5.00
2023-02-27T16:40:14.401Z,4.80
2023-02-27T16:42:45.161Z,4.80
2023-02-27T16:45:26.483Z,4.70
2023-02-27T16:47:58.786Z,4.60
2023-02-27T16:50:43.259Z,4.58
2023-02-27T16:53:11.207Z,4.52
2023-02-27T16:55:41.120Z,4.50
2023-02-27T16:58:16.671Z,4.32
2023-02-27T17:00:45.018Z,4.30
2023-02-27T17:03:14.447Z,4.16
2023-02-27T17:05:42.605Z,3.90
2023-02-27T17:08:12.550Z,3.70
2023-02-27T17:10:40.492Z,3.60
2023-02-27T17:13:08.197Z,3.50
2023-02-27T17:15:36.387Z,3.40
2023-02-27T17:18:04.242Z,3.40
2023-02-27T17:20:32.460Z,3.40
2023-02-27T17:23:00.201Z,3.40
2023-02-27T17:25:28.320Z,3.40
2023-02-27T17:27:56.555Z,3.40
2023-02-27T17:30:24.857Z,3.46
2023-02-27T17:32:54.193Z,3.32
2023-02-27T17:35:22.490Z,3.28
2023-02-27T17:37:50.719Z,3.30
2023-02-27T17:40:18.641Z,3.20
2023-02-27T17:42:48.678Z,3.20
2023-02-27T17:45:16.737Z,3.20
2023-02-27T17:47:45.090Z,3.10
2023-02-27T17:50:14.390Z,3.10
2023-02-27T17:52:42.593Z,3.00
2023-02-27T17:55:16.537Z,3.00
2023-02-27T17:57:44.404Z,3.00
2023-02-27T18:00:15.626Z,2.80
2023-02-27T18:02:45.191Z,2.60
2023-02-27T18:05:16.238Z,2.50
2023-02-27T18:07:46.633Z,2.40
2023-02-27T18:10:16.140Z,2.40
2023-02-27T18:12:44.458Z,2.30
2023-02-27T18:15:15.143Z,2.20
2023-02-27T18:17:44.640Z,2.00
2023-02-27T18:20:16.417Z,1.88
2023-02-27T18:22:44.073Z,1.80
2023-02-27T18:25:12.839Z,1.90
2023-02-27T18:27:40.777Z,1.90
2023-02-27T18:30:12.034Z,1.92
2023-02-27T18:32:39.833Z,2.00
2023-02-27T18:35:08.543Z,2.10
2023-02-27T18:37:36.243Z,2.10
2023-02-27T18:40:06.057Z,2.00
2023-02-27T18:42:34.632Z,2.00
2023-02-27T18:45:02.800Z,2.00
2023-02-27T18:47:30.521Z,2.10
2023-02-27T18:49:59.146Z,2.00
2023-02-27T18:52:29.785Z,1.90
2023-02-27T18:54:58.055Z,1.90
2023-02-27T18:57:26.410Z,1.86
2023-02-27T18:59:58.961Z,1.90
2023-02-27T19:02:26.946Z,1.80
2023-02-27T19:04:54.685Z,1.80
2023-02-27T19:07:25.591Z,1.80
2023-02-27T19:09:55.111Z,1.80
2023-02-27T19:12:24.587Z,1.80
2023-02-27T19:14:59.015Z,1.88
2023-02-27T19:17:28.421Z,1.90
2023-02-27T19:19:56.296Z,1.90
2023-02-27T19:22:29.328Z,2.00
2023-02-27T19:24:57.593Z,2.00
2023-02-27T19:27:25.623Z,1.90
2023-02-27T19:29:53.671Z,1.90
2023-02-27T19:32:21.871Z,1.80
2023-02-27T19:34:49.845Z,1.80
2023-02-27T19:37:18.444Z,1.80
2023-02-27T19:39:46.662Z,1.80
2023-02-27T19:42:14.370Z,1.80
2023-02-27T19:44:47.304Z,1.76
2023-02-27T19:47:15.678Z,1.70
2023-02-27T19:49:44.060Z,1.70
2023-02-27T19:52:13.311Z,1.70
2023-02-27T19:54:41.163Z,1.60
2023-02-27T19:57:09.684Z,1.62
2023-02-27T19:59:38.876Z,1.60
2023-02-27T20:02:07.647Z,1.70
2023-02-27T20:04:35.946Z,1.70
2023-02-27T20:07:04.477Z,1.70
2023-02-27T20:09:33.965Z,1.70
2023-02-27T20:12:05.328Z,1.64
2023-02-27T20:14:33.097Z,1.60
2023-02-27T20:17:01.126Z,1.60
2023-02-27T20:19:29.174Z,1.50
2023-02-27T20:21:58.767Z,1.40
2023-02-27T20:24:28.247Z,1.36
2023-02-27T20:26:59.169Z,1.40
2023-02-27T20:29:27.838Z,1.40
2023-02-27T20:31:57.555Z,1.40
2023-02-27T20:34:26.794Z,1.40
2023-02-27T20:36:56.220Z,1.40
2023-02-27T20:39:25.213Z,1.40
2023-02-27T20:41:52.985Z,1.44
2023-02-27T20:44:21.253Z,1.48
2023-02-27T20:46:49.649Z,1.40
2023-02-27T20:49:18.671Z,1.40
2023-02-27T20:51:47.018Z,1.40
2023-02-27T20:54:20.486Z,1.40
2023-02-27T20:56:52.319Z,1.30
2023-02-27T20:59:23.425Z,1.30
2023-02-27T21:01:53.515Z,1.20
2023-02-27T21:04:44.191Z,1.10
2023-02-27T21:07:18.824Z,1.00
2023-02-27T21:09:47.794Z,1.00
2023-02-27T21:12:17.531Z,1.00
2023-02-27T21:14:46.833Z,1.00
2023-02-27T21:17:15.006Z,1.00
2023-02-27T21:19:42.774Z,0.92
2023-02-27T21:22:11.390Z,0.84
2023-02-27T21:24:39.313Z,0.70
2023-02-27T21:27:07.862Z,0.70
2023-02-27T21:29:36.405Z,0.60
2023-02-27T21:32:05.056Z,0.50
2023-02-27T21:34:32.981Z,0.50
2023-02-27T21:37:03.143Z,0.50
2023-02-27T21:39:30.952Z,0.40
2023-02-27T21:41:59.717Z,0.40
2023-02-27T21:44:29.732Z,0.40
2023-02-27T21:46:59.596Z,0.40
2023-02-27T21:49:29.552Z,0.42
2023-02-27T21:51:57.364Z,0.50
2023-02-27T21:54:25.121Z,0.50
2023-02-27T21:56:53.218Z,0.50
2023-02-27T21:59:21.800Z,0.50
2023-02-27T22:01:49.899Z,0.40
2023-02-27T22:04:20.506Z,0.40
2023-02-27T22:06:51.075Z,0.40
2023-02-27T22:09:20.366Z,0.40
2023-02-27T22:11:49.362Z,0.40
2023-02-27T22:14:17.749Z,0.30
2023-02-27T22:16:45.586Z,0.30
2023-02-27T22:19:22.786Z,0.24
2023-02-27T22:21:50.803Z,0.20
2023-02-27T22:24:19.167Z,0.20
2023-02-27T22:26:49.733Z,0.20
2023-02-27T22:29:18.148Z,0.20
2023-02-27T22:31:46.845Z,0.14
2023-02-27T22:34:18.818Z,0.12
2023-02-27T22:36:52.084Z,0.10
2023-02-27T22:39:20.945Z,0.10
2023-02-27T22:41:48.821Z,0.04
2023-02-27T22:44:17.389Z,-0.10
2023-02-27T22:46:49.839Z,-0.20
2023-02-27T22:49:22.012Z,-0.20
2023-02-27T22:51:52.380Z,-0.20
2023-02-27T22:54:26.263Z,-0.30
2023-02-27T22:56:56.928Z,-0.30
2023-02-27T22:59:26.813Z,-0.30
2023-02-27T23:01:54.623Z,-0.38
2023-02-27T23:04:25.754Z,-0.40
2023-02-27T23:06:56.936Z,-0.40
2023-02-27T23:09:27.201Z,-0.30
2023-02-27T23:11:56.227Z,-0.30
2023-02-27T23:14:24.216Z,-0.20
2023-02-27T23:16:52.286Z,-0.20
2023-02-27T23:19:22.687Z,-0.20
2023-02-27T23:21:50.814Z,-0.20
2023-02-27T23:24:20.236Z,-0.30
2023-02-27T23:26:51.461Z,-0.30
2023-02-27T23:29:19.638Z,-0.30
2023-02-27T23:31:48.204Z,-0.30
2023-02-27T23:34:18.788Z,-0.30
2023-02-27T23:36:46.549Z,-0.30
2023-02-27T23:39:14.469Z,-0.30
2023-02-27T23:41:42.605Z,-0.28
2023-02-27T23:44:10.899Z,-0.30
2023-02-27T23:46:39.267Z,-0.30
2023-02-27T23:49:07.739Z,-0.30
2023-02-27T23:51:35.781Z,-0.30
2023-02-27T23:54:04.034Z,-0.30
2023-02-27T23:56:35.270Z,-0.30
2023-02-27T23:59:07.308Z,-0.30
